sensor_id;sensor_type;location;lat;lon;timestamp;P1;durP1;ratioP1;P2;durP2;ratioP2
22843;SDS011;11588;51.178;4.852;2023-03-12T00:01:11;11.27;;;5.38;;
22843;SDS011;11588;51.178;4.852;2023-03-12T00:03:38;10.38;;;5.07;;
22843;SDS011;11588;51.178;4.852;2023-03-12T00:06:05;14.23;;;5.55;;
22843;SDS011;11588;51.178;4.852;2023-03-12T00:08:32;8.93;;;5.18;;
22843;SDS011;11588;51.178;4.852;2023-03-12T00:10:58;11.23;;;5.40;;
22843;SDS011;11588;51.178;4.852;2023-03-12T00:13:28;14.23;;;5.30;;
22843;SDS011;11588;51.178;4.852;2023-03-12T00:15:54;12.50;;;5.20;;
22843;SDS011;11588;51.178;4.852;2023-03-12T00:18:21;8.02;;;4.35;;
22843;SDS011;11588;51.178;4.852;2023-03-12T00:23:25;10.02;;;5.47;;
22843;SDS011;11588;51.178;4.852;2023-03-12T00:25:52;12.38;;;5.63;;
22843;SDS011;11588;51.178;4.852;2023-03-12T00:28:24;10.68;;;5.43;;
22843;SDS011;11588;51.178;4.852;2023-03-12T00:30:50;7.43;;;4.90;;
22843;SDS011;11588;51.178;4.852;2023-03-12T00:33:18;13.75;;;5.32;;
22843;SDS011;11588;51.178;4.852;2023-03-12T00:35:46;10.38;;;4.95;;
22843;SDS011;11588;51.178;4.852;2023-03-12T00:38:12;8.73;;;4.90;;
22843;SDS011;11588;51.178;4.852;2023-03-12T00:40:42;12.53;;;5.23;;
22843;SDS011;11588;51.178;4.852;2023-03-12T00:43:09;11.07;;;5.88;;
22843;SDS011;11588;51.178;4.852;2023-03-12T00:45:35;8.40;;;4.90;;
22843;SDS011;11588;51.178;4.852;2023-03-12T00:48:01;10.35;;;5.47;;
22843;SDS011;11588;51.178;4.852;2023-03-12T00:50:28;8.63;;;4.80;;
22843;SDS011;11588;51.178;4.852;2023-03-12T00:52:55;8.57;;;5.30;;
22843;SDS011;11588;51.178;4.852;2023-03-12T00:55:23;10.15;;;4.80;;
22843;SDS011;11588;51.178;4.852;2023-03-12T00:57:49;11.73;;;6.03;;
22843;SDS011;11588;51.178;4.852;2023-03-12T01:00:16;11.50;;;5.20;;
22843;SDS011;11588;51.178;4.852;2023-03-12T01:02:42;9.45;;;5.28;;
22843;SDS011;11588;51.178;4.852;2023-03-12T01:05:12;16.52;;;5.45;;
22843;SDS011;11588;51.178;4.852;2023-03-12T01:07:39;9.02;;;5.00;;
22843;SDS011;11588;51.178;4.852;2023-03-12T01:10:06;11.35;;;5.15;;
22843;SDS011;11588;51.178;4.852;2023-03-12T01:12:37;13.67;;;5.37;;
22843;SDS011;11588;51.178;4.852;2023-03-12T01:15:03;8.50;;;4.82;;
22843;SDS011;11588;51.178;4.852;2023-03-12T01:17:30;13.77;;;6.07;;
22843;SDS011;11588;51.178;4.852;2023-03-12T01:19:58;11.68;;;5.03;;
22843;SDS011;11588;51.178;4.852;2023-03-12T01:22:25;15.98;;;4.90;;
22843;SDS011;11588;51.178;4.852;2023-03-12T01:24:52;10.30;;;5.90;;
22843;SDS011;11588;51.178;4.852;2023-03-12T01:27:21;12.60;;;5.30;;
22843;SDS011;11588;51.178;4.852;2023-03-12T01:29:47;9.95;;;5.65;;
22843;SDS011;11588;51.178;4.852;2023-03-12T01:32:14;12.10;;;5.10;;
22843;SDS011;11588;51.178;4.852;2023-03-12T01:34:42;10.18;;;5.13;;
22843;SDS011;11588;51.178;4.852;2023-03-12T01:37:08;11.50;;;5.35;;
22843;SDS011;11588;51.178;4.852;2023-03-12T01:39:38;11.60;;;6.57;;
22843;SDS011;11588;51.178;4.852;2023-03-12T01:42:09;11.00;;;5.30;;
22843;SDS011;11588;51.178;4.852;2023-03-12T01:47:10;16.92;;;6.03;;
22843;SDS011;11588;51.178;4.852;2023-03-12T01:49:36;11.55;;;5.72;;
22843;SDS011;11588;51.178;4.852;2023-03-12T01:52:05;15.68;;;5.93;;
22843;SDS011;11588;51.178;4.852;2023-03-12T01:54:36;11.70;;;6.03;;
22843;SDS011;11588;51.178;4.852;2023-03-12T01:57:10;10.35;;;5.80;;
22843;SDS011;11588;51.178;4.852;2023-03-12T01:59:41;13.23;;;7.15;;
22843;SDS011;11588;51.178;4.852;2023-03-12T02:02:11;12.38;;;6.22;;
22843;SDS011;11588;51.178;4.852;2023-03-12T02:04:38;12.27;;;6.10;;
22843;SDS011;11588;51.178;4.852;2023-03-12T02:07:06;11.15;;;6.05;;
22843;SDS011;11588;51.178;4.852;2023-03-12T02:09:35;14.30;;;6.97;;
22843;SDS011;11588;51.178;4.852;2023-03-12T02:12:05;10.02;;;6.28;;
22843;SDS011;11588;51.178;4.852;2023-03-12T02:14:35;9.80;;;5.90;;
22843;SDS011;11588;51.178;4.852;2023-03-12T02:17:03;11.02;;;6.75;;
22843;SDS011;11588;51.178;4.852;2023-03-12T02:19:36;11.00;;;6.22;;
22843;SDS011;11588;51.178;4.852;2023-03-12T02:22:06;15.05;;;6.90;;
22843;SDS011;11588;51.178;4.852;2023-03-12T02:24:37;16.48;;;6.57;;
22843;SDS011;11588;51.178;4.852;2023-03-12T02:27:05;13.15;;;6.47;;
22843;SDS011;11588;51.178;4.852;2023-03-12T02:29:34;12.70;;;6.50;;
22843;SDS011;11588;51.178;4.852;2023-03-12T02:32:02;9.82;;;5.70;;
22843;SDS011;11588;51.178;4.852;2023-03-12T02:34:33;13.77;;;5.75;;
22843;SDS011;11588;51.178;4.852;2023-03-12T02:37:00;15.68;;;6.03;;
22843;SDS011;11588;51.178;4.852;2023-03-12T02:39:29;12.43;;;5.88;;
22843;SDS011;11588;51.178;4.852;2023-03-12T02:41:56;13.75;;;5.43;;
22843;SDS011;11588;51.178;4.852;2023-03-12T02:44:29;11.93;;;5.57;;
22843;SDS011;11588;51.178;4.852;2023-03-12T02:47:00;14.10;;;5.93;;
22843;SDS011;11588;51.178;4.852;2023-03-12T02:49:28;11.00;;;5.30;;
22843;SDS011;11588;51.178;4.852;2023-03-12T02:51:55;13.48;;;5.15;;
22843;SDS011;11588;51.178;4.852;2023-03-12T02:54:23;12.15;;;4.80;;
22843;SDS011;11588;51.178;4.852;2023-03-12T02:56:51;11.18;;;4.72;;
22843;SDS011;11588;51.178;4.852;2023-03-12T02:59:17;10.82;;;4.97;;
22843;SDS011;11588;51.178;4.852;2023-03-12T03:01:46;12.52;;;4.50;;
22843;SDS011;11588;51.178;4.852;2023-03-12T03:04:15;7.75;;;4.57;;
22843;SDS011;11588;51.178;4.852;2023-03-12T03:06:41;8.30;;;4.13;;
22843;SDS011;11588;51.178;4.852;2023-03-12T03:09:08;10.82;;;4.68;;
22843;SDS011;11588;51.178;4.852;2023-03-12T03:11:35;12.63;;;4.63;;
22843;SDS011;11588;51.178;4.852;2023-03-12T03:14:02;9.35;;;4.53;;
22843;SDS011;11588;51.178;4.852;2023-03-12T03:16:29;8.75;;;4.53;;
22843;SDS011;11588;51.178;4.852;2023-03-12T03:18:55;10.57;;;5.03;;
22843;SDS011;11588;51.178;4.852;2023-03-12T03:21:21;11.52;;;5.88;;
22843;SDS011;11588;51.178;4.852;2023-03-12T03:23:49;11.77;;;5.60;;
22843;SDS011;11588;51.178;4.852;2023-03-12T03:26:16;12.52;;;4.82;;
22843;SDS011;11588;51.178;4.852;2023-03-12T03:28:42;10.10;;;5.53;;
22843;SDS011;11588;51.178;4.852;2023-03-12T03:31:09;14.00;;;5.18;;
22843;SDS011;11588;51.178;4.852;2023-03-12T03:33:36;9.73;;;5.03;;
22843;SDS011;11588;51.178;4.852;2023-03-12T03:36:05;9.20;;;4.70;;
22843;SDS011;11588;51.178;4.852;2023-03-12T03:38:36;12.13;;;4.82;;
22843;SDS011;11588;51.178;4.852;2023-03-12T03:41:02;12.13;;;4.57;;
22843;SDS011;11588;51.178;4.852;2023-03-12T03:43:29;11.60;;;4.57;;
22843;SDS011;11588;51.178;4.852;2023-03-12T03:45:56;10.48;;;4.15;;
22843;SDS011;11588;51.178;4.852;2023-03-12T03:48:23;7.78;;;4.53;;
22843;SDS011;11588;51.178;4.852;2023-03-12T03:50:50;11.23;;;4.57;;
22843;SDS011;11588;51.178;4.852;2023-03-12T03:53:16;8.27;;;4.18;;
22843;SDS011;11588;51.178;4.852;2023-03-12T03:55:47;9.07;;;4.47;;
22843;SDS011;11588;51.178;4.852;2023-03-12T03:58:15;10.07;;;4.45;;
22843;SDS011;11588;51.178;4.852;2023-03-12T04:00:43;8.88;;;4.82;;
22843;SDS011;11588;51.178;4.852;2023-03-12T04:03:11;10.02;;;4.25;;
22843;SDS011;11588;51.178;4.852;2023-03-12T04:05:41;7.55;;;3.90;;
22843;SDS011;11588;51.178;4.852;2023-03-12T04:08:10;10.52;;;4.22;;
22843;SDS011;11588;51.178;4.852;2023-03-12T04:10:37;10.10;;;4.05;;
22843;SDS011;11588;51.178;4.852;2023-03-12T04:13:03;7.65;;;3.80;;
22843;SDS011;11588;51.178;4.852;2023-03-12T04:15:30;11.35;;;4.20;;
22843;SDS011;11588;51.178;4.852;2023-03-12T04:17:57;9.27;;;4.03;;
22843;SDS011;11588;51.178;4.852;2023-03-12T04:20:24;9.30;;;4.15;;
22843;SDS011;11588;51.178;4.852;2023-03-12T04:22:51;10.50;;;4.07;;
22843;SDS011;11588;51.178;4.852;2023-03-12T04:25:17;10.25;;;4.50;;
22843;SDS011;11588;51.178;4.852;2023-03-12T04:27:43;10.20;;;4.57;;
22843;SDS011;11588;51.178;4.852;2023-03-12T04:30:10;9.57;;;4.45;;
22843;SDS011;11588;51.178;4.852;2023-03-12T04:32:40;8.88;;;4.80;;
22843;SDS011;11588;51.178;4.852;2023-03-12T04:35:07;11.70;;;4.13;;
22843;SDS011;11588;51.178;4.852;2023-03-12T04:37:33;9.02;;;4.32;;
22843;SDS011;11588;51.178;4.852;2023-03-12T04:40:00;11.38;;;4.07;;
22843;SDS011;11588;51.178;4.852;2023-03-12T04:42:26;8.15;;;4.00;;
22843;SDS011;11588;51.178;4.852;2023-03-12T04:44:53;7.15;;;3.95;;
22843;SDS011;11588;51.178;4.852;2023-03-12T04:47:20;11.15;;;4.40;;
22843;SDS011;11588;51.178;4.852;2023-03-12T04:49:46;8.95;;;4.25;;
22843;SDS011;11588;51.178;4.852;2023-03-12T04:52:16;10.75;;;4.95;;
22843;SDS011;11588;51.178;4.852;2023-03-12T04:54:45;8.90;;;4.07;;
22843;SDS011;11588;51.178;4.852;2023-03-12T04:57:12;6.97;;;4.15;;
22843;SDS011;11588;51.178;4.852;2023-03-12T04:59:39;8.40;;;4.07;;
22843;SDS011;11588;51.178;4.852;2023-03-12T05:02:05;11.52;;;4.18;;
22843;SDS011;11588;51.178;4.852;2023-03-12T05:04:31;7.32;;;4.30;;
22843;SDS011;11588;51.178;4.852;2023-03-12T05:06:58;9.30;;;4.50;;
22843;SDS011;11588;51.178;4.852;2023-03-12T05:09:25;8.65;;;4.30;;
22843;SDS011;11588;51.178;4.852;2023-03-12T05:11:51;8.80;;;4.80;;
22843;SDS011;11588;51.178;4.852;2023-03-12T05:14:24;10.48;;;4.57;;
22843;SDS011;11588;51.178;4.852;2023-03-12T05:16:54;9.38;;;4.50;;
22843;SDS011;11588;51.178;4.852;2023-03-12T05:19:21;7.70;;;4.25;;
22843;SDS011;11588;51.178;4.852;2023-03-12T05:21:49;8.25;;;4.45;;
22843;SDS011;11588;51.178;4.852;2023-03-12T05:24:15;14.02;;;5.10;;
22843;SDS011;11588;51.178;4.852;2023-03-12T05:26:41;8.73;;;4.55;;
22843;SDS011;11588;51.178;4.852;2023-03-12T05:29:08;16.00;;;5.43;;
22843;SDS011;11588;51.178;4.852;2023-03-12T05:31:35;11.07;;;5.30;;
22843;SDS011;11588;51.178;4.852;2023-03-12T05:34:03;14.85;;;5.65;;
22843;SDS011;11588;51.178;4.852;2023-03-12T05:36:29;12.77;;;5.50;;
22843;SDS011;11588;51.178;4.852;2023-03-12T05:38:57;8.15;;;4.68;;
22843;SDS011;11588;51.178;4.852;2023-03-12T05:41:25;9.90;;;5.13;;
22843;SDS011;11588;51.178;4.852;2023-03-12T05:43:52;10.45;;;5.05;;
22843;SDS011;11588;51.178;4.852;2023-03-12T05:46:22;9.25;;;5.00;;
22843;SDS011;11588;51.178;4.852;2023-03-12T05:48:52;9.55;;;5.65;;
22843;SDS011;11588;51.178;4.852;2023-03-12T05:51:18;15.05;;;6.40;;
22843;SDS011;11588;51.178;4.852;2023-03-12T05:53:46;13.98;;;6.47;;
22843;SDS011;11588;51.178;4.852;2023-03-12T05:56:16;10.20;;;7.03;;
22843;SDS011;11588;51.178;4.852;2023-03-12T05:58:42;14.82;;;7.05;;
22843;SDS011;11588;51.178;4.852;2023-03-12T06:01:13;14.75;;;7.63;;
22843;SDS011;11588;51.178;4.852;2023-03-12T06:03:46;13.95;;;8.07;;
22843;SDS011;11588;51.178;4.852;2023-03-12T06:06:15;16.93;;;9.07;;
22843;SDS011;11588;51.178;4.852;2023-03-12T06:08:43;17.10;;;9.15;;
22843;SDS011;11588;51.178;4.852;2023-03-12T06:11:09;19.55;;;9.82;;
22843;SDS011;11588;51.178;4.852;2023-03-12T06:13:37;14.80;;;9.75;;
22843;SDS011;11588;51.178;4.852;2023-03-12T06:16:05;18.50;;;10.55;;
22843;SDS011;11588;51.178;4.852;2023-03-12T06:18:33;23.83;;;11.35;;
22843;SDS011;11588;51.178;4.852;2023-03-12T06:23:33;20.40;;;11.77;;
22843;SDS011;11588;51.178;4.852;2023-03-12T06:26:01;19.58;;;11.20;;
22843;SDS011;11588;51.178;4.852;2023-03-12T06:28:29;18.70;;;12.88;;
22843;SDS011;11588;51.178;4.852;2023-03-12T06:30:57;23.45;;;13.30;;
22843;SDS011;11588;51.178;4.852;2023-03-12T06:33:23;23.05;;;14.45;;
22843;SDS011;11588;51.178;4.852;2023-03-12T06:35:52;32.03;;;15.82;;
22843;SDS011;11588;51.178;4.852;2023-03-12T06:38:19;28.15;;;16.15;;
22843;SDS011;11588;51.178;4.852;2023-03-12T06:43:26;32.38;;;18.23;;
22843;SDS011;11588;51.178;4.852;2023-03-12T06:45:54;29.80;;;18.25;;
22843;SDS011;11588;51.178;4.852;2023-03-12T06:48:22;30.00;;;18.48;;
22843;SDS011;11588;51.178;4.852;2023-03-12T06:50:48;30.10;;;18.25;;
22843;SDS011;11588;51.178;4.852;2023-03-12T06:53:15;35.42;;;19.17;;
22843;SDS011;11588;51.178;4.852;2023-03-12T06:55:43;33.00;;;20.52;;
22843;SDS011;11588;51.178;4.852;2023-03-12T06:58:11;33.22;;;20.40;;
22843;SDS011;11588;51.178;4.852;2023-03-12T07:00:39;33.47;;;20.13;;
22843;SDS011;11588;51.178;4.852;2023-03-12T07:03:06;33.03;;;20.73;;
22843;SDS011;11588;51.178;4.852;2023-03-12T07:05:33;38.55;;;22.30;;
22843;SDS011;11588;51.178;4.852;2023-03-12T07:08:00;35.97;;;22.45;;
22843;SDS011;11588;51.178;4.852;2023-03-12T07:10:28;36.72;;;21.10;;
22843;SDS011;11588;51.178;4.852;2023-03-12T07:12:55;40.63;;;22.50;;
22843;SDS011;11588;51.178;4.852;2023-03-12T07:15:22;38.60;;;23.38;;
22843;SDS011;11588;51.178;4.852;2023-03-12T07:17:50;40.42;;;23.42;;
22843;SDS011;11588;51.178;4.852;2023-03-12T07:20:16;39.08;;;23.73;;
22843;SDS011;11588;51.178;4.852;2023-03-12T07:22:45;39.95;;;24.48;;
22843;SDS011;11588;51.178;4.852;2023-03-12T07:25:12;45.53;;;25.00;;
22843;SDS011;11588;51.178;4.852;2023-03-12T07:27:38;47.20;;;26.63;;
22843;SDS011;11588;51.178;4.852;2023-03-12T07:30:05;47.65;;;25.90;;
22843;SDS011;11588;51.178;4.852;2023-03-12T07:32:36;51.50;;;27.65;;
22843;SDS011;11588;51.178;4.852;2023-03-12T07:35:03;51.92;;;28.98;;
22843;SDS011;11588;51.178;4.852;2023-03-12T07:37:30;55.85;;;28.98;;
22843;SDS011;11588;51.178;4.852;2023-03-12T07:39:58;52.13;;;28.98;;
22843;SDS011;11588;51.178;4.852;2023-03-12T07:42:25;53.65;;;28.95;;
22843;SDS011;11588;51.178;4.852;2023-03-12T07:44:51;51.72;;;30.23;;
22843;SDS011;11588;51.178;4.852;2023-03-12T07:47:18;58.72;;;30.58;;
22843;SDS011;11588;51.178;4.852;2023-03-12T07:49:44;48.40;;;28.55;;
22843;SDS011;11588;51.178;4.852;2023-03-12T07:52:14;62.33;;;29.08;;
22843;SDS011;11588;51.178;4.852;2023-03-12T07:54:43;67.45;;;28.70;;
22843;SDS011;11588;51.178;4.852;2023-03-12T07:57:12;60.22;;;28.55;;
22843;SDS011;11588;51.178;4.852;2023-03-12T07:59:39;61.25;;;29.58;;
22843;SDS011;11588;51.178;4.852;2023-03-12T08:02:05;62.55;;;28.70;;
22843;SDS011;11588;51.178;4.852;2023-03-12T08:04:31;61.95;;;28.35;;
22843;SDS011;11588;51.178;4.852;2023-03-12T08:06:58;51.80;;;26.67;;
22843;SDS011;11588;51.178;4.852;2023-03-12T08:09:25;63.60;;;26.45;;
22843;SDS011;11588;51.178;4.852;2023-03-12T08:11:51;66.30;;;26.85;;
22843;SDS011;11588;51.178;4.852;2023-03-12T08:14:18;65.45;;;26.88;;
22843;SDS011;11588;51.178;4.852;2023-03-12T08:16:45;57.15;;;26.73;;
22843;SDS011;11588;51.178;4.852;2023-03-12T08:19:12;66.40;;;27.35;;
22843;SDS011;11588;51.178;4.852;2023-03-12T08:21:39;61.25;;;26.08;;
22843;SDS011;11588;51.178;4.852;2023-03-12T08:24:05;65.03;;;27.23;;
22843;SDS011;11588;51.178;4.852;2023-03-12T08:26:32;73.72;;;28.05;;
22843;SDS011;11588;51.178;4.852;2023-03-12T08:28:59;66.45;;;27.48;;
22843;SDS011;11588;51.178;4.852;2023-03-12T08:31:26;69.30;;;26.08;;
22843;SDS011;11588;51.178;4.852;2023-03-12T08:33:53;56.80;;;24.33;;
22843;SDS011;11588;51.178;4.852;2023-03-12T08:36:20;68.07;;;25.10;;
22843;SDS011;11588;51.178;4.852;2023-03-12T08:38:47;65.22;;;25.63;;
22843;SDS011;11588;51.178;4.852;2023-03-12T08:41:13;61.80;;;24.55;;
22843;SDS011;11588;51.178;4.852;2023-03-12T08:43:39;76.93;;;25.77;;
22843;SDS011;11588;51.178;4.852;2023-03-12T08:46:07;65.20;;;24.95;;
22843;SDS011;11588;51.178;4.852;2023-03-12T08:48:33;62.42;;;25.60;;
22843;SDS011;11588;51.178;4.852;2023-03-12T08:51:00;57.28;;;24.00;;
22843;SDS011;11588;51.178;4.852;2023-03-12T08:53:32;62.03;;;24.77;;
22843;SDS011;11588;51.178;4.852;2023-03-12T08:55:59;61.90;;;22.65;;
22843;SDS011;11588;51.178;4.852;2023-03-12T08:58:26;63.83;;;24.35;;
22843;SDS011;11588;51.178;4.852;2023-03-12T09:00:54;57.33;;;21.25;;
22843;SDS011;11588;51.178;4.852;2023-03-12T09:03:20;58.47;;;21.75;;
22843;SDS011;11588;51.178;4.852;2023-03-12T09:05:58;52.85;;;22.25;;
22843;SDS011;11588;51.178;4.852;2023-03-12T09:08:27;53.75;;;19.90;;
22843;SDS011;11588;51.178;4.852;2023-03-12T09:10:58;57.33;;;20.23;;
22843;SDS011;11588;51.178;4.852;2023-03-12T09:13:26;60.53;;;20.45;;
22843;SDS011;11588;51.178;4.852;2023-03-12T09:15:57;54.88;;;19.45;;
22843;SDS011;11588;51.178;4.852;2023-03-12T09:18:24;52.13;;;17.55;;
22843;SDS011;11588;51.178;4.852;2023-03-12T09:20:51;48.20;;;18.52;;
22843;SDS011;11588;51.178;4.852;2023-03-12T09:23:17;51.92;;;17.13;;
22843;SDS011;11588;51.178;4.852;2023-03-12T09:25:44;55.30;;;16.13;;
22843;SDS011;11588;51.178;4.852;2023-03-12T09:28:11;38.25;;;14.52;;
22843;SDS011;11588;51.178;4.852;2023-03-12T09:30:37;43.88;;;14.82;;
22843;SDS011;11588;51.178;4.852;2023-03-12T09:33:04;46.95;;;14.95;;
22843;SDS011;11588;51.178;4.852;2023-03-12T09:35:30;50.10;;;14.48;;
22843;SDS011;11588;51.178;4.852;2023-03-12T09:37:57;49.13;;;14.35;;
22843;SDS011;11588;51.178;4.852;2023-03-12T09:40:24;45.13;;;13.52;;
22843;SDS011;11588;51.178;4.852;2023-03-12T09:42:56;46.38;;;13.45;;
22843;SDS011;11588;51.178;4.852;2023-03-12T09:45:30;40.20;;;13.57;;
22843;SDS011;11588;51.178;4.852;2023-03-12T09:47:58;49.33;;;11.48;;
22843;SDS011;11588;51.178;4.852;2023-03-12T09:50:26;44.70;;;12.38;;
22843;SDS011;11588;51.178;4.852;2023-03-12T09:52:57;41.13;;;11.40;;
22843;SDS011;11588;51.178;4.852;2023-03-12T09:55:26;42.40;;;11.70;;
22843;SDS011;11588;51.178;4.852;2023-03-12T09:57:53;44.20;;;10.48;;
22843;SDS011;11588;51.178;4.852;2023-03-12T10:00:21;51.22;;;11.88;;
22843;SDS011;11588;51.178;4.852;2023-03-12T10:08:04;47.85;;;10.90;;
22843;SDS011;11588;51.178;4.852;2023-03-12T10:10:36;40.08;;;9.45;;
22843;SDS011;11588;51.178;4.852;2023-03-12T10:15:47;44.22;;;11.88;;
22843;SDS011;11588;51.178;4.852;2023-03-12T10:20:57;42.70;;;13.35;;
22843;SDS011;11588;51.178;4.852;2023-03-12T10:26:06;38.72;;;14.63;;
22843;SDS011;11588;51.178;4.852;2023-03-12T10:28:37;46.63;;;16.33;;
22843;SDS011;11588;51.178;4.852;2023-03-12T10:31:12;37.58;;;13.70;;
22843;SDS011;11588;51.178;4.852;2023-03-12T10:33:43;42.47;;;14.32;;
22843;SDS011;11588;51.178;4.852;2023-03-12T10:38:39;48.17;;;12.48;;
22843;SDS011;11588;51.178;4.852;2023-03-12T10:43:39;43.22;;;10.60;;
22843;SDS011;11588;51.178;4.852;2023-03-12T10:46:15;43.67;;;10.85;;
22843;SDS011;11588;51.178;4.852;2023-03-12T10:49:16;35.80;;;9.88;;
22843;SDS011;11588;51.178;4.852;2023-03-12T10:54:20;42.42;;;10.48;;
22843;SDS011;11588;51.178;4.852;2023-03-12T10:56:48;40.13;;;10.52;;
22843;SDS011;11588;51.178;4.852;2023-03-12T11:01:50;34.20;;;8.50;;
22843;SDS011;11588;51.178;4.852;2023-03-12T11:04:31;43.72;;;9.57;;
22843;SDS011;11588;51.178;4.852;2023-03-12T11:07:02;38.45;;;9.02;;
22843;SDS011;11588;51.178;4.852;2023-03-12T11:09:30;40.47;;;9.02;;
22843;SDS011;11588;51.178;4.852;2023-03-12T11:11:57;38.35;;;8.82;;
22843;SDS011;11588;51.178;4.852;2023-03-12T11:14:25;39.78;;;8.55;;
22843;SDS011;11588;51.178;4.852;2023-03-12T11:16:52;35.70;;;8.30;;
22843;SDS011;11588;51.178;4.852;2023-03-12T11:21:54;33.63;;;8.00;;
22843;SDS011;11588;51.178;4.852;2023-03-12T11:24:24;41.75;;;8.32;;
22843;SDS011;11588;51.178;4.852;2023-03-12T11:31:55;35.78;;;8.32;;
22843;SDS011;11588;51.178;4.852;2023-03-12T11:34:26;32.47;;;7.57;;
22843;SDS011;11588;51.178;4.852;2023-03-12T11:39:34;35.95;;;7.50;;
22843;SDS011;11588;51.178;4.852;2023-03-12T11:42:14;36.50;;;8.82;;
22843;SDS011;11588;51.178;4.852;2023-03-12T11:49:48;34.05;;;6.75;;
22843;SDS011;11588;51.178;4.852;2023-03-12T11:52:23;36.30;;;8.02;;
22843;SDS011;11588;51.178;4.852;2023-03-12T11:55:10;31.05;;;6.75;;
22843;SDS011;11588;51.178;4.852;2023-03-12T12:00:15;36.63;;;7.30;;
22843;SDS011;11588;51.178;4.852;2023-03-12T12:05:21;32.63;;;7.35;;
22843;SDS011;11588;51.178;4.852;2023-03-12T12:07:57;33.42;;;6.95;;
22843;SDS011;11588;51.178;4.852;2023-03-12T12:10:40;31.02;;;7.13;;
22843;SDS011;11588;51.178;4.852;2023-03-12T12:31:17;26.63;;;6.28;;
22843;SDS011;11588;51.178;4.852;2023-03-12T12:36:19;25.25;;;6.35;;
22843;SDS011;11588;51.178;4.852;2023-03-12T12:38:49;28.73;;;7.57;;
22843;SDS011;11588;51.178;4.852;2023-03-12T12:41:21;33.65;;;5.85;;
22843;SDS011;11588;51.178;4.852;2023-03-12T12:46:25;30.63;;;6.20;;
22843;SDS011;11588;51.178;4.852;2023-03-12T12:48:53;36.00;;;5.93;;
22843;SDS011;11588;51.178;4.852;2023-03-12T12:51:23;29.90;;;5.90;;
22843;SDS011;11588;51.178;4.852;2023-03-12T12:56:28;41.92;;;6.53;;
22843;SDS011;11588;51.178;4.852;2023-03-12T12:59:03;40.65;;;6.57;;
22843;SDS011;11588;51.178;4.852;2023-03-12T13:01:31;37.35;;;5.95;;
22843;SDS011;11588;51.178;4.852;2023-03-12T13:04:00;34.60;;;6.75;;
22843;SDS011;11588;51.178;4.852;2023-03-12T13:06:35;38.00;;;7.00;;
22843;SDS011;11588;51.178;4.852;2023-03-12T13:09:15;40.95;;;6.93;;
22843;SDS011;11588;51.178;4.852;2023-03-12T13:11:47;42.65;;;6.72;;
22843;SDS011;11588;51.178;4.852;2023-03-12T13:14:18;36.20;;;6.10;;
22843;SDS011;11588;51.178;4.852;2023-03-12T13:16:45;36.33;;;6.30;;
22843;SDS011;11588;51.178;4.852;2023-03-12T13:21:43;37.47;;;6.35;;
22843;SDS011;11588;51.178;4.852;2023-03-12T13:26:50;31.85;;;5.20;;
22843;SDS011;11588;51.178;4.852;2023-03-12T13:31:52;27.73;;;5.82;;
22843;SDS011;11588;51.178;4.852;2023-03-12T13:36:46;32.17;;;5.90;;
22843;SDS011;11588;51.178;4.852;2023-03-12T13:41:46;27.13;;;5.25;;
22843;SDS011;11588;51.178;4.852;2023-03-12T13:49:26;33.70;;;6.28;;
22843;SDS011;11588;51.178;4.852;2023-03-12T13:51:55;29.85;;;5.22;;
22843;SDS011;11588;51.178;4.852;2023-03-12T13:54:24;35.15;;;5.07;;
22843;SDS011;11588;51.178;4.852;2023-03-12T13:56:56;24.48;;;5.20;;
22843;SDS011;11588;51.178;4.852;2023-03-12T13:59:25;24.75;;;5.00;;
22843;SDS011;11588;51.178;4.852;2023-03-12T14:01:55;27.77;;;5.07;;
22843;SDS011;11588;51.178;4.852;2023-03-12T14:17:18;37.38;;;6.47;;
22843;SDS011;11588;51.178;4.852;2023-03-12T14:19:46;35.40;;;5.85;;
22843;SDS011;11588;51.178;4.852;2023-03-12T14:22:14;27.60;;;5.47;;
22843;SDS011;11588;51.178;4.852;2023-03-12T14:24:49;28.77;;;5.55;;
22843;SDS011;11588;51.178;4.852;2023-03-12T14:29:48;34.65;;;5.82;;
22843;SDS011;11588;51.178;4.852;2023-03-12T14:32:19;36.05;;;6.07;;
22843;SDS011;11588;51.178;4.852;2023-03-12T14:34:50;33.08;;;6.15;;
22843;SDS011;11588;51.178;4.852;2023-03-12T14:37:20;35.90;;;6.55;;
22843;SDS011;11588;51.178;4.852;2023-03-12T14:39:52;32.88;;;5.78;;
22843;SDS011;11588;51.178;4.852;2023-03-12T14:42:21;31.25;;;5.97;;
22843;SDS011;11588;51.178;4.852;2023-03-12T14:44:52;29.73;;;5.07;;
22843;SDS011;11588;51.178;4.852;2023-03-12T14:47:21;25.90;;;4.90;;
22843;SDS011;11588;51.178;4.852;2023-03-12T14:49:47;33.05;;;4.75;;
22843;SDS011;11588;51.178;4.852;2023-03-12T14:52:19;26.45;;;5.68;;
22843;SDS011;11588;51.178;4.852;2023-03-12T14:57:21;30.73;;;4.90;;
22843;SDS011;11588;51.178;4.852;2023-03-12T14:59:53;29.63;;;5.35;;
22843;SDS011;11588;51.178;4.852;2023-03-12T15:02:21;31.40;;;5.70;;
22843;SDS011;11588;51.178;4.852;2023-03-12T15:04:57;29.90;;;5.47;;
22843;SDS011;11588;51.178;4.852;2023-03-12T15:07:27;32.40;;;5.32;;
22843;SDS011;11588;51.178;4.852;2023-03-12T15:09:55;36.25;;;6.22;;
22843;SDS011;11588;51.178;4.852;2023-03-12T15:12:23;34.58;;;5.53;;
22843;SDS011;11588;51.178;4.852;2023-03-12T15:14:52;31.35;;;5.45;;
22843;SDS011;11588;51.178;4.852;2023-03-12T15:17:23;29.95;;;5.90;;
22843;SDS011;11588;51.178;4.852;2023-03-12T15:19:52;29.70;;;5.00;;
22843;SDS011;11588;51.178;4.852;2023-03-12T15:22:20;34.17;;;5.60;;
22843;SDS011;11588;51.178;4.852;2023-03-12T15:24:50;30.02;;;5.97;;
22843;SDS011;11588;51.178;4.852;2023-03-12T15:29:53;29.48;;;5.70;;
22843;SDS011;11588;51.178;4.852;2023-03-12T15:32:21;30.35;;;5.72;;
22843;SDS011;11588;51.178;4.852;2023-03-12T15:34:49;30.02;;;5.53;;
22843;SDS011;11588;51.178;4.852;2023-03-12T15:39:59;28.48;;;5.25;;
22843;SDS011;11588;51.178;4.852;2023-03-12T15:42:26;31.08;;;5.30;;
22843;SDS011;11588;51.178;4.852;2023-03-12T15:44:55;30.27;;;5.93;;
22843;SDS011;11588;51.178;4.852;2023-03-12T15:47:23;33.67;;;6.03;;
22843;SDS011;11588;51.178;4.852;2023-03-12T15:49:52;31.30;;;6.22;;
22843;SDS011;11588;51.178;4.852;2023-03-12T15:57:23;25.92;;;5.53;;
22843;SDS011;11588;51.178;4.852;2023-03-12T16:05:01;35.28;;;5.82;;
22843;SDS011;11588;51.178;4.852;2023-03-12T16:07:28;37.17;;;6.13;;
22843;SDS011;11588;51.178;4.852;2023-03-12T16:09:55;29.60;;;6.38;;
22843;SDS011;11588;51.178;4.852;2023-03-12T16:12:21;30.02;;;5.57;;
22843;SDS011;11588;51.178;4.852;2023-03-12T16:14:49;45.15;;;7.35;;
22843;SDS011;11588;51.178;4.852;2023-03-12T16:17:20;40.58;;;6.25;;
22843;SDS011;11588;51.178;4.852;2023-03-12T16:19:47;29.02;;;5.82;;
22843;SDS011;11588;51.178;4.852;2023-03-12T16:22:14;38.17;;;6.53;;
22843;SDS011;11588;51.178;4.852;2023-03-12T16:24:42;38.60;;;6.05;;
22843;SDS011;11588;51.178;4.852;2023-03-12T16:27:10;41.38;;;6.95;;
22843;SDS011;11588;51.178;4.852;2023-03-12T16:29:39;37.15;;;6.18;;
22843;SDS011;11588;51.178;4.852;2023-03-12T16:32:11;33.78;;;5.88;;
22843;SDS011;11588;51.178;4.852;2023-03-12T16:34:38;44.95;;;7.18;;
22843;SDS011;11588;51.178;4.852;2023-03-12T16:37:07;41.03;;;6.47;;
22843;SDS011;11588;51.178;4.852;2023-03-12T16:39:35;34.35;;;6.68;;
22843;SDS011;11588;51.178;4.852;2023-03-12T16:42:05;35.38;;;6.55;;
22843;SDS011;11588;51.178;4.852;2023-03-12T16:44:34;33.28;;;6.32;;
22843;SDS011;11588;51.178;4.852;2023-03-12T16:47:01;38.90;;;6.75;;
22843;SDS011;11588;51.178;4.852;2023-03-12T16:49:28;36.00;;;6.45;;
22843;SDS011;11588;51.178;4.852;2023-03-12T16:51:55;33.50;;;5.60;;